x

Buoy B01 - Western Maine Shelf (44030) Wave Buoy

7:04am - Thu 29th Jan 2015 All times are EST. -5 hours from GMT.

  • Sig Wave height 3.3ft
  • Peak Period 11s
  • Wind
    11mph, 13mph gusts
  • Sea Temp 40°f
  • 空気 Temp 20°f
  • Sea Pressure 1024mb
  • Buoy B01 - Western Maine Shelf
  • Buoy B01 - Western Maine Shelf

More Historic Weather Station data

Upgrade to MSW Pro to gain access to the past 30 days of data for over 8000 Wavebouys and Weather Stations around the globe.

Join Pro

Comparision Forecast

View Surf forecast
   
Thu 01/29 7:04am 3.5ft 11s 11 13 mph 1024mb 40f 20f
6:04am 3.5ft 11s 9 13 mph 1023.8mb 40f 20f
5:04am 3.5ft 11s 13 16 mph 1023.8mb 40f 20f
4:04am 4ft 11s 9 13 mph 1023.2mb 40f 20f
3:04am 3.5ft 11s 11 16 mph 1023.5mb 40f 20f
2:04am 4.5ft 11s 16 20 mph 1023.2mb 40f 20f
1:04am 4ft 11s 13 18 mph 1022.5mb 40f 20f
12:04am 5ft 11s 9 13 mph 1022mb 40f 21f
Wed 01/28 11:04pm 5ft 11s 9 11 mph 1021.4mb 40f 22f
10:04pm 5ft 11s 16 22 mph 1020.7mb 40f 22f
9:04pm 5ft 11s 20 27 mph 1020mb 40f 23f
8:04pm 6.5ft 11s 13 18 mph 1019.1mb 40f 24f
7:04pm 5ft 8s 16 22 mph 1017.8mb 40f 24f
6:04pm 6ft 11s 25 31 mph 1016.4mb 40f 25f
5:04pm 6ft 11s 27 34 mph 1015.2mb 41f 25f
4:04pm  -   -  20 25 mph 1014.2mb 41f 24f
3:04pm 6.5ft 11s 16 25 mph 1013.4mb 41f 23f
2:04pm 7ft 11s 20 27 mph 1012.5mb 41f 23f
1:04pm 8.5ft 11s 20 27 mph - 41f 22f
12:04pm 9.5ft 11s 22 40 mph - 41f 22f
11:04am 10.5ft 11s 34 45 mph - 41f 20f
10:04am 10ft 11s 31 43 mph - 41f 20f
9:04am 10.5ft 11s 36 51 mph - 41f 19f
8:04am 10ft 11s 31 49 mph - 42f 19f
7:04am 10.5ft 11s 25 40 mph - 42f 19f
6:04am 11.5ft 11s 29 45 mph - 42f 19f
5:04am 13ft 11s 31 43 mph - 42f 20f
4:04am  -   -  38 47 mph - 43f 20f
3:04am 15ft 11s 40 54 mph - 43f 20f
2:04am  -   -  36 54 mph - 43f 20f
1:04am  -   -  34 54 mph - 43f 20f
12:04am  -   -  38 58 mph - 42f 20f
Tue 01/27 11:04pm  -   -  38 60 mph - 42f 21f
10:04pm 5ft 4s 38 58 mph - 42f 21f
9:04pm  -   -  40 58 mph - 42f 22f
8:04pm  -   -  36 45 mph - 42f 22f
7:04pm 6.5ft 5s 36 43 mph - 42f 23f
6:04pm  -   -  51 67 mph - 42f 23f
5:04pm  -   -  47 63 mph - 42f 23f
4:04pm  -   -  40 56 mph - 42f 24f
3:04pm  -   -  49 67 mph - 42f 24f
2:04pm  -   -  47 63 mph - 42f 24f
1:04pm 23ft 11s 45 63 mph - 42f 24f
12:04pm  -   -  47 63 mph - 41f 23f
11:04am  -   -  49 63 mph - 42f 23f
10:04am  -   -  38 51 mph - 42f 22f
9:04am 20.5ft 11s 38 47 mph - 42f 21f
8:04am 19ft 11s 40 51 mph - 42f 21f
7:04am 17.5ft 11s 40 51 mph - 41f 22f
6:04am 6ft 5s 47 56 mph - 41f 24f
5:04am  -   -  40 54 mph - 41f 24f
4:04am 14.5ft 8s 43 51 mph 1004.1mb 41f 21f
3:04am 14ft 8s 40 49 mph 1006.5mb 41f 22f
2:04am 13.5ft 8s 40 47 mph 1006.5mb 41f 22f
1:04am 11ft 8s 43 56 mph 1010.5mb 41f 22f
12:04am 10ft 8s 36 47 mph 1011.9mb 41f 22f
Mon 01/26 11:04pm 8.5ft 6s 38 47 mph 1014.1mb 41f 23f
10:04pm 8ft 6s 34 40 mph 1016.1mb 41f 24f
9:04pm 7ft 6s 31 38 mph 1017mb 41f 25f
8:04pm 7ft 5s 31 43 mph 1018.1mb 41f 26f
7:04pm 5ft 5s 27 34 mph 1018.4mb 41f 26f
6:04pm 6ft 5s 27 31 mph 1018.4mb 41f 27f
5:04pm 4.5ft 5s 22 27 mph 1018.6mb 41f 26f
4:04pm 4ft 5s 22 29 mph 1018.1mb 41f 25f
3:04pm 4.5ft 5s 20 25 mph 1018.4mb 41f 24f
2:04pm 3ft 4s 20 25 mph 1018.6mb 42f 24f
1:04pm 4ft 11s 18 25 mph 1018.8mb 42f 23f
12:04pm 2.5ft 4s 16 20 mph 1019.7mb 42f 22f
11:04am 2.5ft 4s 16 20 mph 1020.9mb 41f 20f
10:04am 2.5ft 4s 16 20 mph 1021.3mb 41f 18f
9:04am 3.5ft 11s 16 20 mph 1020.8mb 41f 17f
8:04am 3.5ft 11s 13 18 mph 1020.6mb 41f 16f
7:04am 3.5ft 11s 11 16 mph 1020.2mb 42f 16f
6:04am 2ft 4s 11 16 mph 1019.4mb 42f 15f
5:04am 3.5ft 11s 13 18 mph 1018.7mb 42f 15f
4:04am 1.6ft 4s 13 18 mph 1017.9mb 42f 16f
3:04am 2ft 3s 13 18 mph 1017.5mb 42f 15f
2:04am 2ft 4s 16 20 mph 1017.3mb 41f 16f
1:04am 2ft 3s 13 18 mph 1016.7mb 41f 17f
12:04am 2.5ft 4s 18 25 mph 1016mb 41f 18f
Sun 01/25 11:04pm 2.5ft 3s 22 27 mph 1015.4mb 41f 20f
10:04pm  -   -  22 27 mph 1014.3mb 42f 20f
9:04pm 3ft 4s 22 29 mph 1013.4mb 41f 21f
8:04pm 3ft 4s 27 34 mph 1011.8mb 41f 23f
7:04pm  -   -  22 29 mph 1010.1mb 41f 25f
6:04pm  -   -  22 29 mph 1009.1mb 41f 28f
5:04pm 3.5ft 4s 22 27 mph 1006.9mb 41f 29f
4:04pm 3ft 4s 22 29 mph 1004.9mb 41f 30f
3:04pm 3ft 4s 27 34 mph 1003.3mb 41f 32f
2:04pm 3.5ft 4s 25 31 mph 1002mb 41f 32f